sensor_id;sensor_type;location;lat;lon;timestamp;P1;durP1;ratioP1;P2;durP2;ratioP2
6089;SDS011;3073;42.660;23.316;2023-03-21T00:01:23;23.70;;;10.27;;
6089;SDS011;3073;42.660;23.316;2023-03-21T00:03:51;26.43;;;11.97;;
6089;SDS011;3073;42.660;23.316;2023-03-21T00:06:17;29.23;;;14.80;;
6089;SDS011;3073;42.660;23.316;2023-03-21T00:08:45;27.67;;;13.13;;
6089;SDS011;3073;42.660;23.316;2023-03-21T00:11:12;26.63;;;11.93;;
6089;SDS011;3073;42.660;23.316;2023-03-21T00:13:42;20.63;;;11.33;;
6089;SDS011;3073;42.660;23.316;2023-03-21T00:16:10;24.10;;;11.63;;
6089;SDS011;3073;42.660;23.316;2023-03-21T00:18:39;27.63;;;14.03;;
6089;SDS011;3073;42.660;23.316;2023-03-21T00:21:07;27.50;;;13.87;;
6089;SDS011;3073;42.660;23.316;2023-03-21T00:23:36;25.83;;;13.30;;
6089;SDS011;3073;42.660;23.316;2023-03-21T00:26:03;27.17;;;14.60;;
6089;SDS011;3073;42.660;23.316;2023-03-21T00:28:34;25.30;;;14.33;;
6089;SDS011;3073;42.660;23.316;2023-03-21T00:31:02;27.83;;;14.37;;
6089;SDS011;3073;42.660;23.316;2023-03-21T00:33:31;27.77;;;13.70;;
6089;SDS011;3073;42.660;23.316;2023-03-21T00:35:59;31.30;;;15.23;;
6089;SDS011;3073;42.660;23.316;2023-03-21T00:38:27;24.10;;;14.53;;
6089;SDS011;3073;42.660;23.316;2023-03-21T00:40:54;28.80;;;15.10;;
6089;SDS011;3073;42.660;23.316;2023-03-21T00:43:21;30.67;;;15.23;;
6089;SDS011;3073;42.660;23.316;2023-03-21T00:45:54;30.10;;;15.43;;
6089;SDS011;3073;42.660;23.316;2023-03-21T00:48:24;29.10;;;15.63;;
6089;SDS011;3073;42.660;23.316;2023-03-21T00:50:52;26.93;;;15.10;;
6089;SDS011;3073;42.660;23.316;2023-03-21T00:53:20;27.80;;;15.27;;
6089;SDS011;3073;42.660;23.316;2023-03-21T00:55:47;21.90;;;14.03;;
6089;SDS011;3073;42.660;23.316;2023-03-21T00:58:14;27.20;;;15.47;;
6089;SDS011;3073;42.660;23.316;2023-03-21T01:00:44;30.60;;;14.60;;
6089;SDS011;3073;42.660;23.316;2023-03-21T01:03:12;26.67;;;14.60;;
6089;SDS011;3073;42.660;23.316;2023-03-21T01:05:42;32.53;;;14.50;;
6089;SDS011;3073;42.660;23.316;2023-03-21T01:08:27;33.57;;;15.80;;
6089;SDS011;3073;42.660;23.316;2023-03-21T01:10:54;32.73;;;15.97;;
6089;SDS011;3073;42.660;23.316;2023-03-21T01:13:23;27.00;;;15.10;;
6089;SDS011;3073;42.660;23.316;2023-03-21T01:15:51;33.13;;;16.53;;
6089;SDS011;3073;42.660;23.316;2023-03-21T01:18:20;32.93;;;14.67;;
6089;SDS011;3073;42.660;23.316;2023-03-21T01:20:50;26.57;;;15.07;;
6089;SDS011;3073;42.660;23.316;2023-03-21T01:23:18;36.27;;;16.30;;
6089;SDS011;3073;42.660;23.316;2023-03-21T01:25:45;29.13;;;15.00;;
6089;SDS011;3073;42.660;23.316;2023-03-21T01:28:13;25.43;;;14.50;;
6089;SDS011;3073;42.660;23.316;2023-03-21T01:30:43;27.27;;;16.50;;
6089;SDS011;3073;42.660;23.316;2023-03-21T01:33:11;31.47;;;15.37;;
6089;SDS011;3073;42.660;23.316;2023-03-21T01:35:38;25.53;;;13.67;;
6089;SDS011;3073;42.660;23.316;2023-03-21T01:38:06;30.23;;;13.50;;
6089;SDS011;3073;42.660;23.316;2023-03-21T01:40:34;27.67;;;13.30;;
6089;SDS011;3073;42.660;23.316;2023-03-21T01:43:02;29.03;;;14.07;;
6089;SDS011;3073;42.660;23.316;2023-03-21T01:48:45;22.90;;;13.30;;
6089;SDS011;3073;42.660;23.316;2023-03-21T01:51:16;23.47;;;13.73;;
6089;SDS011;3073;42.660;23.316;2023-03-21T01:53:45;25.53;;;13.27;;
6089;SDS011;3073;42.660;23.316;2023-03-21T01:56:15;30.23;;;14.00;;
6089;SDS011;3073;42.660;23.316;2023-03-21T01:58:48;26.03;;;14.33;;
6089;SDS011;3073;42.660;23.316;2023-03-21T02:01:16;25.07;;;13.33;;
6089;SDS011;3073;42.660;23.316;2023-03-21T02:03:47;22.93;;;12.10;;
6089;SDS011;3073;42.660;23.316;2023-03-21T02:06:19;21.37;;;12.53;;
6089;SDS011;3073;42.660;23.316;2023-03-21T02:08:59;23.03;;;12.10;;
6089;SDS011;3073;42.660;23.316;2023-03-21T02:11:28;31.27;;;13.10;;
6089;SDS011;3073;42.660;23.316;2023-03-21T02:13:57;20.87;;;11.23;;
6089;SDS011;3073;42.660;23.316;2023-03-21T02:16:28;25.93;;;12.17;;
6089;SDS011;3073;42.660;23.316;2023-03-21T02:19:08;22.63;;;12.10;;
6089;SDS011;3073;42.660;23.316;2023-03-21T02:22:04;22.60;;;10.53;;
6089;SDS011;3073;42.660;23.316;2023-03-21T02:25:03;26.27;;;11.13;;
6089;SDS011;3073;42.660;23.316;2023-03-21T02:27:49;14.67;;;9.53;;
6089;SDS011;3073;42.660;23.316;2023-03-21T02:30:26;18.07;;;10.20;;
6089;SDS011;3073;42.660;23.316;2023-03-21T02:33:17;20.80;;;10.03;;
6089;SDS011;3073;42.660;23.316;2023-03-21T02:36:20;18.33;;;9.67;;
6089;SDS011;3073;42.660;23.316;2023-03-21T02:38:55;10.30;;;7.83;;
6089;SDS011;3073;42.660;23.316;2023-03-21T02:41:32;17.30;;;10.03;;
6089;SDS011;3073;42.660;23.316;2023-03-21T02:44:10;18.43;;;10.47;;
6089;SDS011;3073;42.660;23.316;2023-03-21T02:46:47;21.40;;;11.80;;
6089;SDS011;3073;42.660;23.316;2023-03-21T02:49:18;19.27;;;10.37;;
6089;SDS011;3073;42.660;23.316;2023-03-21T02:51:48;17.10;;;9.87;;
6089;SDS011;3073;42.660;23.316;2023-03-21T02:54:18;16.70;;;10.30;;
6089;SDS011;3073;42.660;23.316;2023-03-21T02:56:49;14.43;;;9.30;;
6089;SDS011;3073;42.660;23.316;2023-03-21T02:59:18;18.80;;;9.43;;
6089;SDS011;3073;42.660;23.316;2023-03-21T03:01:49;22.40;;;11.07;;
6089;SDS011;3073;42.660;23.316;2023-03-21T03:04:18;18.50;;;10.97;;
6089;SDS011;3073;42.660;23.316;2023-03-21T03:06:48;14.93;;;9.07;;
6089;SDS011;3073;42.660;23.316;2023-03-21T03:09:40;17.33;;;8.40;;
6089;SDS011;3073;42.660;23.316;2023-03-21T03:12:23;17.23;;;8.27;;
6089;SDS011;3073;42.660;23.316;2023-03-21T03:14:58;15.83;;;9.30;;
6089;SDS011;3073;42.660;23.316;2023-03-21T03:17:38;19.23;;;9.53;;
6089;SDS011;3073;42.660;23.316;2023-03-21T03:20:18;32.00;;;11.17;;
6089;SDS011;3073;42.660;23.316;2023-03-21T03:22:52;17.77;;;10.13;;
6089;SDS011;3073;42.660;23.316;2023-03-21T03:25:26;16.37;;;9.27;;
6089;SDS011;3073;42.660;23.316;2023-03-21T03:27:56;15.33;;;8.40;;
6089;SDS011;3073;42.660;23.316;2023-03-21T03:30:26;27.97;;;8.97;;
6089;SDS011;3073;42.660;23.316;2023-03-21T03:32:55;16.37;;;8.33;;
6089;SDS011;3073;42.660;23.316;2023-03-21T03:35:27;15.00;;;9.07;;
6089;SDS011;3073;42.660;23.316;2023-03-21T03:37:56;14.27;;;7.43;;
6089;SDS011;3073;42.660;23.316;2023-03-21T03:40:27;14.03;;;7.33;;
6089;SDS011;3073;42.660;23.316;2023-03-21T03:43:01;20.10;;;8.17;;
6089;SDS011;3073;42.660;23.316;2023-03-21T03:45:33;18.20;;;9.20;;
6089;SDS011;3073;42.660;23.316;2023-03-21T03:48:03;16.53;;;7.93;;
6089;SDS011;3073;42.660;23.316;2023-03-21T03:50:33;13.70;;;7.83;;
6089;SDS011;3073;42.660;23.316;2023-03-21T03:53:05;15.50;;;9.00;;
6089;SDS011;3073;42.660;23.316;2023-03-21T03:55:40;16.03;;;8.80;;
6089;SDS011;3073;42.660;23.316;2023-03-21T03:58:08;29.33;;;8.87;;
6089;SDS011;3073;42.660;23.316;2023-03-21T04:00:35;15.60;;;8.20;;
6089;SDS011;3073;42.660;23.316;2023-03-21T04:03:03;14.10;;;8.20;;
6089;SDS011;3073;42.660;23.316;2023-03-21T04:05:31;18.57;;;7.83;;
6089;SDS011;3073;42.660;23.316;2023-03-21T04:07:58;13.30;;;7.97;;
6089;SDS011;3073;42.660;23.316;2023-03-21T04:10:25;16.73;;;8.23;;
6089;SDS011;3073;42.660;23.316;2023-03-21T04:12:53;15.60;;;8.20;;
6089;SDS011;3073;42.660;23.316;2023-03-21T04:15:20;17.57;;;8.60;;
6089;SDS011;3073;42.660;23.316;2023-03-21T04:17:47;27.03;;;10.20;;
6089;SDS011;3073;42.660;23.316;2023-03-21T04:20:14;21.93;;;9.97;;
6089;SDS011;3073;42.660;23.316;2023-03-21T04:22:42;20.60;;;10.50;;
6089;SDS011;3073;42.660;23.316;2023-03-21T04:25:09;37.53;;;15.30;;
6089;SDS011;3073;42.660;23.316;2023-03-21T04:27:37;59.40;;;14.23;;
6089;SDS011;3073;42.660;23.316;2023-03-21T04:30:07;37.87;;;13.27;;
6089;SDS011;3073;42.660;23.316;2023-03-21T04:32:36;58.57;;;14.23;;
6089;SDS011;3073;42.660;23.316;2023-03-21T04:35:05;25.23;;;11.13;;
6089;SDS011;3073;42.660;23.316;2023-03-21T04:37:34;23.33;;;10.47;;
6089;SDS011;3073;42.660;23.316;2023-03-21T04:40:01;34.77;;;11.77;;
6089;SDS011;3073;42.660;23.316;2023-03-21T04:42:31;21.60;;;10.07;;
6089;SDS011;3073;42.660;23.316;2023-03-21T04:44:59;22.00;;;10.33;;
6089;SDS011;3073;42.660;23.316;2023-03-21T04:47:27;28.27;;;8.97;;
6089;SDS011;3073;42.660;23.316;2023-03-21T04:49:54;19.53;;;9.97;;
6089;SDS011;3073;42.660;23.316;2023-03-21T04:52:22;28.47;;;10.17;;
6089;SDS011;3073;42.660;23.316;2023-03-21T04:54:49;13.33;;;8.97;;
6089;SDS011;3073;42.660;23.316;2023-03-21T04:57:16;16.30;;;8.37;;
6089;SDS011;3073;42.660;23.316;2023-03-21T04:59:42;12.57;;;8.37;;
6089;SDS011;3073;42.660;23.316;2023-03-21T05:02:10;17.40;;;8.57;;
6089;SDS011;3073;42.660;23.316;2023-03-21T05:04:39;16.20;;;8.00;;
6089;SDS011;3073;42.660;23.316;2023-03-21T05:07:06;13.30;;;7.83;;
6089;SDS011;3073;42.660;23.316;2023-03-21T05:09:33;24.93;;;8.60;;
6089;SDS011;3073;42.660;23.316;2023-03-21T05:12:00;17.70;;;9.27;;
6089;SDS011;3073;42.660;23.316;2023-03-21T05:14:27;17.87;;;8.47;;
6089;SDS011;3073;42.660;23.316;2023-03-21T05:16:55;13.93;;;7.23;;
6089;SDS011;3073;42.660;23.316;2023-03-21T05:19:26;17.20;;;8.97;;
6089;SDS011;3073;42.660;23.316;2023-03-21T05:22:00;15.87;;;8.90;;
6089;SDS011;3073;42.660;23.316;2023-03-21T05:24:30;20.07;;;9.13;;
6089;SDS011;3073;42.660;23.316;2023-03-21T05:26:58;15.77;;;8.00;;
6089;SDS011;3073;42.660;23.316;2023-03-21T05:29:27;20.97;;;9.73;;
6089;SDS011;3073;42.660;23.316;2023-03-21T05:31:55;17.60;;;9.60;;
6089;SDS011;3073;42.660;23.316;2023-03-21T05:34:26;18.97;;;9.73;;
6089;SDS011;3073;42.660;23.316;2023-03-21T05:36:55;21.03;;;9.53;;
6089;SDS011;3073;42.660;23.316;2023-03-21T05:39:25;21.80;;;10.10;;
6089;SDS011;3073;42.660;23.316;2023-03-21T05:41:52;24.83;;;9.80;;
6089;SDS011;3073;42.660;23.316;2023-03-21T05:44:18;30.80;;;11.73;;
6089;SDS011;3073;42.660;23.316;2023-03-21T05:46:45;36.10;;;12.00;;
6089;SDS011;3073;42.660;23.316;2023-03-21T05:49:12;27.27;;;11.90;;
6089;SDS011;3073;42.660;23.316;2023-03-21T05:51:39;27.60;;;11.17;;
6089;SDS011;3073;42.660;23.316;2023-03-21T05:54:06;55.33;;;11.83;;
6089;SDS011;3073;42.660;23.316;2023-03-21T05:56:34;27.83;;;11.23;;
6089;SDS011;3073;42.660;23.316;2023-03-21T05:59:01;22.30;;;10.87;;
6089;SDS011;3073;42.660;23.316;2023-03-21T06:01:28;54.47;;;14.73;;
6089;SDS011;3073;42.660;23.316;2023-03-21T06:03:55;55.57;;;16.03;;
6089;SDS011;3073;42.660;23.316;2023-03-21T06:06:21;64.03;;;18.30;;
6089;SDS011;3073;42.660;23.316;2023-03-21T06:08:48;74.43;;;17.30;;
6089;SDS011;3073;42.660;23.316;2023-03-21T06:11:19;43.20;;;12.90;;
6089;SDS011;3073;42.660;23.316;2023-03-21T06:13:51;26.73;;;11.37;;
6089;SDS011;3073;42.660;23.316;2023-03-21T06:16:17;17.17;;;9.80;;
6089;SDS011;3073;42.660;23.316;2023-03-21T06:18:44;21.10;;;10.00;;
6089;SDS011;3073;42.660;23.316;2023-03-21T06:21:11;11.60;;;7.20;;
6089;SDS011;3073;42.660;23.316;2023-03-21T06:23:38;19.90;;;7.87;;
6089;SDS011;3073;42.660;23.316;2023-03-21T06:26:05;26.17;;;8.87;;
6089;SDS011;3073;42.660;23.316;2023-03-21T06:28:32;26.60;;;9.30;;
6089;SDS011;3073;42.660;23.316;2023-03-21T06:31:00;14.00;;;7.90;;
6089;SDS011;3073;42.660;23.316;2023-03-21T06:33:27;18.60;;;9.00;;
6089;SDS011;3073;42.660;23.316;2023-03-21T06:35:55;22.27;;;9.10;;
6089;SDS011;3073;42.660;23.316;2023-03-21T06:38:23;15.30;;;9.07;;
6089;SDS011;3073;42.660;23.316;2023-03-21T06:40:51;16.00;;;8.53;;
6089;SDS011;3073;42.660;23.316;2023-03-21T06:43:18;14.57;;;8.80;;
6089;SDS011;3073;42.660;23.316;2023-03-21T06:45:45;18.23;;;8.47;;
6089;SDS011;3073;42.660;23.316;2023-03-21T06:48:13;30.30;;;9.00;;
6089;SDS011;3073;42.660;23.316;2023-03-21T06:50:41;20.03;;;9.33;;
6089;SDS011;3073;42.660;23.316;2023-03-21T06:53:07;13.17;;;8.87;;
6089;SDS011;3073;42.660;23.316;2023-03-21T06:55:34;22.43;;;10.23;;
6089;SDS011;3073;42.660;23.316;2023-03-21T06:58:02;22.30;;;10.20;;
6089;SDS011;3073;42.660;23.316;2023-03-21T07:00:28;17.10;;;9.17;;
6089;SDS011;3073;42.660;23.316;2023-03-21T07:02:55;15.13;;;9.30;;
6089;SDS011;3073;42.660;23.316;2023-03-21T07:05:24;16.67;;;9.73;;
6089;SDS011;3073;42.660;23.316;2023-03-21T07:07:51;24.27;;;9.83;;
6089;SDS011;3073;42.660;23.316;2023-03-21T07:10:18;21.00;;;10.80;;
6089;SDS011;3073;42.660;23.316;2023-03-21T07:12:44;19.20;;;9.37;;
6089;SDS011;3073;42.660;23.316;2023-03-21T07:15:11;19.20;;;8.50;;
6089;SDS011;3073;42.660;23.316;2023-03-21T07:17:38;14.70;;;8.33;;
6089;SDS011;3073;42.660;23.316;2023-03-21T07:20:05;14.13;;;8.30;;
6089;SDS011;3073;42.660;23.316;2023-03-21T07:22:34;13.23;;;7.80;;
6089;SDS011;3073;42.660;23.316;2023-03-21T07:25:01;15.03;;;7.70;;
6089;SDS011;3073;42.660;23.316;2023-03-21T07:27:29;13.50;;;7.40;;
6089;SDS011;3073;42.660;23.316;2023-03-21T07:29:56;16.67;;;8.90;;
6089;SDS011;3073;42.660;23.316;2023-03-21T07:32:23;18.90;;;9.33;;
6089;SDS011;3073;42.660;23.316;2023-03-21T07:34:54;20.40;;;10.57;;
6089;SDS011;3073;42.660;23.316;2023-03-21T07:37:20;29.73;;;12.57;;
6089;SDS011;3073;42.660;23.316;2023-03-21T07:39:49;21.93;;;9.60;;
6089;SDS011;3073;42.660;23.316;2023-03-21T07:42:16;31.73;;;10.40;;
6089;SDS011;3073;42.660;23.316;2023-03-21T07:44:43;21.60;;;10.60;;
6089;SDS011;3073;42.660;23.316;2023-03-21T07:47:10;25.97;;;11.33;;
6089;SDS011;3073;42.660;23.316;2023-03-21T07:49:37;23.33;;;12.00;;
6089;SDS011;3073;42.660;23.316;2023-03-21T07:52:04;27.07;;;12.10;;
6089;SDS011;3073;42.660;23.316;2023-03-21T07:54:32;21.57;;;11.60;;
6089;SDS011;3073;42.660;23.316;2023-03-21T07:57:00;17.20;;;11.87;;
6089;SDS011;3073;42.660;23.316;2023-03-21T07:59:28;26.37;;;12.30;;
6089;SDS011;3073;42.660;23.316;2023-03-21T08:01:56;28.87;;;12.97;;
6089;SDS011;3073;42.660;23.316;2023-03-21T08:04:22;19.87;;;12.20;;
6089;SDS011;3073;42.660;23.316;2023-03-21T08:06:50;25.73;;;12.17;;
6089;SDS011;3073;42.660;23.316;2023-03-21T08:09:17;24.73;;;11.87;;
6089;SDS011;3073;42.660;23.316;2023-03-21T08:11:43;22.80;;;12.97;;
6089;SDS011;3073;42.660;23.316;2023-03-21T08:14:12;21.37;;;12.27;;
6089;SDS011;3073;42.660;23.316;2023-03-21T08:16:39;42.00;;;14.33;;
6089;SDS011;3073;42.660;23.316;2023-03-21T08:19:05;34.03;;;13.03;;
6089;SDS011;3073;42.660;23.316;2023-03-21T08:21:32;25.37;;;13.73;;
6089;SDS011;3073;42.660;23.316;2023-03-21T08:23:59;31.97;;;13.67;;
6089;SDS011;3073;42.660;23.316;2023-03-21T08:26:26;26.50;;;14.10;;
6089;SDS011;3073;42.660;23.316;2023-03-21T08:28:52;37.80;;;15.20;;
6089;SDS011;3073;42.660;23.316;2023-03-21T08:31:21;29.47;;;13.90;;
6089;SDS011;3073;42.660;23.316;2023-03-21T08:33:48;18.37;;;12.23;;
6089;SDS011;3073;42.660;23.316;2023-03-21T08:36:18;36.17;;;12.80;;
6089;SDS011;3073;42.660;23.316;2023-03-21T08:38:45;23.33;;;13.87;;
6089;SDS011;3073;42.660;23.316;2023-03-21T08:41:13;29.10;;;11.33;;
6089;SDS011;3073;42.660;23.316;2023-03-21T08:43:40;18.77;;;10.60;;
6089;SDS011;3073;42.660;23.316;2023-03-21T08:46:07;23.50;;;11.53;;
6089;SDS011;3073;42.660;23.316;2023-03-21T08:48:35;24.23;;;12.37;;
6089;SDS011;3073;42.660;23.316;2023-03-21T08:51:03;20.77;;;11.43;;
6089;SDS011;3073;42.660;23.316;2023-03-21T08:53:30;25.13;;;13.53;;
6089;SDS011;3073;42.660;23.316;2023-03-21T08:55:57;20.83;;;12.80;;
6089;SDS011;3073;42.660;23.316;2023-03-21T08:58:24;22.40;;;12.20;;
6089;SDS011;3073;42.660;23.316;2023-03-21T09:00:52;22.13;;;13.37;;
6089;SDS011;3073;42.660;23.316;2023-03-21T09:03:19;23.60;;;12.50;;
6089;SDS011;3073;42.660;23.316;2023-03-21T09:05:47;23.33;;;11.73;;
6089;SDS011;3073;42.660;23.316;2023-03-21T09:08:14;19.43;;;11.27;;
6089;SDS011;3073;42.660;23.316;2023-03-21T09:10:42;19.93;;;11.40;;
6089;SDS011;3073;42.660;23.316;2023-03-21T09:13:09;22.30;;;11.80;;
6089;SDS011;3073;42.660;23.316;2023-03-21T09:15:35;22.40;;;12.40;;
6089;SDS011;3073;42.660;23.316;2023-03-21T09:18:03;22.73;;;11.43;;
6089;SDS011;3073;42.660;23.316;2023-03-21T09:20:39;19.97;;;12.20;;
6089;SDS011;3073;42.660;23.316;2023-03-21T09:23:08;22.77;;;11.50;;
6089;SDS011;3073;42.660;23.316;2023-03-21T09:25:36;23.67;;;13.23;;
6089;SDS011;3073;42.660;23.316;2023-03-21T09:28:03;22.93;;;12.70;;
6089;SDS011;3073;42.660;23.316;2023-03-21T09:30:30;23.00;;;12.13;;
6089;SDS011;3073;42.660;23.316;2023-03-21T09:32:58;29.70;;;11.77;;
6089;SDS011;3073;42.660;23.316;2023-03-21T09:35:27;25.80;;;14.47;;
6089;SDS011;3073;42.660;23.316;2023-03-21T09:37:55;24.13;;;12.60;;
6089;SDS011;3073;42.660;23.316;2023-03-21T09:40:28;20.77;;;12.27;;
6089;SDS011;3073;42.660;23.316;2023-03-21T09:43:07;24.67;;;12.40;;
6089;SDS011;3073;42.660;23.316;2023-03-21T09:45:42;28.30;;;12.50;;
6089;SDS011;3073;42.660;23.316;2023-03-21T09:48:17;27.50;;;11.13;;
6089;SDS011;3073;42.660;23.316;2023-03-21T09:50:55;20.33;;;11.67;;
6089;SDS011;3073;42.660;23.316;2023-03-21T09:53:24;23.57;;;11.50;;
6089;SDS011;3073;42.660;23.316;2023-03-21T09:55:57;22.90;;;11.33;;
6089;SDS011;3073;42.660;23.316;2023-03-21T09:58:27;24.70;;;13.07;;
6089;SDS011;3073;42.660;23.316;2023-03-21T10:01:00;22.50;;;11.17;;
6089;SDS011;3073;42.660;23.316;2023-03-21T10:03:43;25.83;;;11.53;;
6089;SDS011;3073;42.660;23.316;2023-03-21T10:06:12;27.07;;;11.93;;
6089;SDS011;3073;42.660;23.316;2023-03-21T10:08:41;22.80;;;12.13;;
6089;SDS011;3073;42.660;23.316;2023-03-21T10:11:19;25.53;;;11.60;;
6089;SDS011;3073;42.660;23.316;2023-03-21T10:13:52;24.87;;;12.53;;
6089;SDS011;3073;42.660;23.316;2023-03-21T10:16:24;30.47;;;12.53;;
6089;SDS011;3073;42.660;23.316;2023-03-21T10:18:54;19.07;;;10.63;;
6089;SDS011;3073;42.660;23.316;2023-03-21T10:21:21;21.60;;;11.20;;
6089;SDS011;3073;42.660;23.316;2023-03-21T10:23:50;22.37;;;12.20;;
6089;SDS011;3073;42.660;23.316;2023-03-21T10:26:22;26.43;;;13.13;;
6089;SDS011;3073;42.660;23.316;2023-03-21T10:28:51;25.83;;;12.53;;
6089;SDS011;3073;42.660;23.316;2023-03-21T10:31:21;25.30;;;12.70;;
6089;SDS011;3073;42.660;23.316;2023-03-21T10:33:50;25.70;;;12.20;;
6089;SDS011;3073;42.660;23.316;2023-03-21T10:36:20;18.63;;;11.83;;
6089;SDS011;3073;42.660;23.316;2023-03-21T10:38:51;19.03;;;11.03;;
6089;SDS011;3073;42.660;23.316;2023-03-21T10:41:22;27.93;;;11.50;;
6089;SDS011;3073;42.660;23.316;2023-03-21T10:44:03;21.50;;;11.57;;
6089;SDS011;3073;42.660;23.316;2023-03-21T10:46:31;22.70;;;11.70;;
6089;SDS011;3073;42.660;23.316;2023-03-21T10:49:00;18.63;;;11.50;;
6089;SDS011;3073;42.660;23.316;2023-03-21T10:51:27;21.20;;;10.57;;
6089;SDS011;3073;42.660;23.316;2023-03-21T10:53:58;19.13;;;11.17;;
6089;SDS011;3073;42.660;23.316;2023-03-21T10:56:34;17.83;;;10.90;;
6089;SDS011;3073;42.660;23.316;2023-03-21T10:59:04;18.93;;;11.20;;
6089;SDS011;3073;42.660;23.316;2023-03-21T11:01:34;17.23;;;12.30;;
6089;SDS011;3073;42.660;23.316;2023-03-21T11:04:08;23.70;;;13.30;;
6089;SDS011;3073;42.660;23.316;2023-03-21T11:06:40;22.50;;;10.43;;
6089;SDS011;3073;42.660;23.316;2023-03-21T11:09:11;13.20;;;8.83;;
6089;SDS011;3073;42.660;23.316;2023-03-21T11:11:47;13.43;;;7.80;;
6089;SDS011;3073;42.660;23.316;2023-03-21T11:14:30;18.73;;;8.47;;
6089;SDS011;3073;42.660;23.316;2023-03-21T11:17:06;17.87;;;9.00;;
6089;SDS011;3073;42.660;23.316;2023-03-21T11:19:46;14.10;;;7.03;;
6089;SDS011;3073;42.660;23.316;2023-03-21T11:22:14;18.93;;;7.97;;
6089;SDS011;3073;42.660;23.316;2023-03-21T11:24:42;15.27;;;8.27;;
6089;SDS011;3073;42.660;23.316;2023-03-21T11:27:15;17.23;;;8.70;;
6089;SDS011;3073;42.660;23.316;2023-03-21T11:29:44;15.47;;;9.30;;
6089;SDS011;3073;42.660;23.316;2023-03-21T11:32:19;16.23;;;8.00;;
6089;SDS011;3073;42.660;23.316;2023-03-21T11:34:47;18.27;;;8.00;;
6089;SDS011;3073;42.660;23.316;2023-03-21T11:37:19;11.00;;;7.43;;
6089;SDS011;3073;42.660;23.316;2023-03-21T11:39:53;17.70;;;8.87;;
6089;SDS011;3073;42.660;23.316;2023-03-21T11:42:26;10.30;;;7.63;;
6089;SDS011;3073;42.660;23.316;2023-03-21T11:45:02;10.30;;;8.00;;
6089;SDS011;3073;42.660;23.316;2023-03-21T11:47:35;12.23;;;6.97;;
6089;SDS011;3073;42.660;23.316;2023-03-21T11:50:08;15.37;;;7.37;;
6089;SDS011;3073;42.660;23.316;2023-03-21T11:52:42;11.40;;;6.73;;
6089;SDS011;3073;42.660;23.316;2023-03-21T11:55:19;11.57;;;8.30;;
6089;SDS011;3073;42.660;23.316;2023-03-21T11:57:56;18.10;;;8.53;;
6089;SDS011;3073;42.660;23.316;2023-03-21T12:00:31;15.00;;;7.80;;
6089;SDS011;3073;42.660;23.316;2023-03-21T12:03:16;13.60;;;7.30;;
6089;SDS011;3073;42.660;23.316;2023-03-21T12:05:54;14.43;;;6.63;;
6089;SDS011;3073;42.660;23.316;2023-03-21T12:08:29;12.60;;;7.57;;
6089;SDS011;3073;42.660;23.316;2023-03-21T12:11:06;14.00;;;7.90;;
6089;SDS011;3073;42.660;23.316;2023-03-21T12:13:45;11.33;;;6.10;;
6089;SDS011;3073;42.660;23.316;2023-03-21T12:16:34;12.83;;;6.63;;
6089;SDS011;3073;42.660;23.316;2023-03-21T12:19:16;10.87;;;6.20;;
6089;SDS011;3073;42.660;23.316;2023-03-21T12:21:53;9.87;;;6.93;;
6089;SDS011;3073;42.660;23.316;2023-03-21T12:24:29;17.53;;;5.80;;
6089;SDS011;3073;42.660;23.316;2023-03-21T12:27:01;13.00;;;6.10;;
6089;SDS011;3073;42.660;23.316;2023-03-21T12:29:54;11.30;;;5.60;;
6089;SDS011;3073;42.660;23.316;2023-03-21T12:32:37;11.37;;;6.53;;
6089;SDS011;3073;42.660;23.316;2023-03-21T12:35:22;8.50;;;5.90;;
6089;SDS011;3073;42.660;23.316;2023-03-21T12:37:59;16.70;;;6.00;;
6089;SDS011;3073;42.660;23.316;2023-03-21T12:40:42;7.97;;;5.50;;
6089;SDS011;3073;42.660;23.316;2023-03-21T12:43:38;11.63;;;5.80;;
6089;SDS011;3073;42.660;23.316;2023-03-21T12:46:12;11.73;;;5.03;;
6089;SDS011;3073;42.660;23.316;2023-03-21T12:48:45;8.40;;;5.10;;
6089;SDS011;3073;42.660;23.316;2023-03-21T12:51:17;9.33;;;6.03;;
6089;SDS011;3073;42.660;23.316;2023-03-21T12:53:50;11.50;;;5.90;;
6089;SDS011;3073;42.660;23.316;2023-03-21T12:56:25;11.17;;;6.30;;
6089;SDS011;3073;42.660;23.316;2023-03-21T12:58:57;7.93;;;6.27;;
6089;SDS011;3073;42.660;23.316;2023-03-21T13:01:28;12.57;;;6.13;;
6089;SDS011;3073;42.660;23.316;2023-03-21T13:04:12;14.67;;;6.23;;
6089;SDS011;3073;42.660;23.316;2023-03-21T13:06:53;12.97;;;5.37;;
6089;SDS011;3073;42.660;23.316;2023-03-21T13:09:25;13.60;;;5.50;;
6089;SDS011;3073;42.660;23.316;2023-03-21T13:11:57;12.57;;;5.20;;
6089;SDS011;3073;42.660;23.316;2023-03-21T13:14:32;9.03;;;5.60;;
6089;SDS011;3073;42.660;23.316;2023-03-21T13:17:05;13.87;;;6.20;;
6089;SDS011;3073;42.660;23.316;2023-03-21T13:19:40;9.57;;;5.60;;
6089;SDS011;3073;42.660;23.316;2023-03-21T13:22:14;10.80;;;5.20;;
6089;SDS011;3073;42.660;23.316;2023-03-21T13:24:55;9.87;;;6.23;;
6089;SDS011;3073;42.660;23.316;2023-03-21T13:27:25;12.87;;;6.00;;
6089;SDS011;3073;42.660;23.316;2023-03-21T13:29:57;11.67;;;6.67;;
6089;SDS011;3073;42.660;23.316;2023-03-21T13:32:28;11.70;;;6.10;;
6089;SDS011;3073;42.660;23.316;2023-03-21T13:34:58;9.70;;;6.27;;
6089;SDS011;3073;42.660;23.316;2023-03-21T13:37:29;18.63;;;6.93;;
6089;SDS011;3073;42.660;23.316;2023-03-21T13:40:01;11.90;;;6.40;;
6089;SDS011;3073;42.660;23.316;2023-03-21T13:42:33;16.73;;;6.30;;
6089;SDS011;3073;42.660;23.316;2023-03-21T13:45:01;9.90;;;5.73;;
6089;SDS011;3073;42.660;23.316;2023-03-21T13:47:40;13.50;;;6.50;;
6089;SDS011;3073;42.660;23.316;2023-03-21T13:50:21;10.60;;;5.47;;
6089;SDS011;3073;42.660;23.316;2023-03-21T13:53:09;20.93;;;6.07;;
6089;SDS011;3073;42.660;23.316;2023-03-21T13:55:46;8.67;;;5.60;;
6089;SDS011;3073;42.660;23.316;2023-03-21T13:58:31;14.50;;;6.23;;
6089;SDS011;3073;42.660;23.316;2023-03-21T14:01:12;11.80;;;5.90;;
6089;SDS011;3073;42.660;23.316;2023-03-21T14:03:49;9.30;;;5.50;;
6089;SDS011;3073;42.660;23.316;2023-03-21T14:06:25;14.33;;;6.00;;
6089;SDS011;3073;42.660;23.316;2023-03-21T14:08:59;10.10;;;5.87;;
6089;SDS011;3073;42.660;23.316;2023-03-21T14:11:27;15.10;;;5.63;;
6089;SDS011;3073;42.660;23.316;2023-03-21T14:13:57;10.00;;;5.90;;
6089;SDS011;3073;42.660;23.316;2023-03-21T14:16:25;14.83;;;6.23;;
6089;SDS011;3073;42.660;23.316;2023-03-21T14:18:55;14.90;;;6.17;;
6089;SDS011;3073;42.660;23.316;2023-03-21T14:21:25;9.23;;;5.63;;
6089;SDS011;3073;42.660;23.316;2023-03-21T14:23:56;10.97;;;6.30;;
6089;SDS011;3073;42.660;23.316;2023-03-21T14:26:25;21.40;;;6.30;;
6089;SDS011;3073;42.660;23.316;2023-03-21T14:28:54;8.87;;;5.37;;
6089;SDS011;3073;42.660;23.316;2023-03-21T14:31:25;13.90;;;6.03;;
6089;SDS011;3073;42.660;23.316;2023-03-21T14:33:54;15.57;;;5.60;;
6089;SDS011;3073;42.660;23.316;2023-03-21T14:36:24;13.93;;;6.00;;
6089;SDS011;3073;42.660;23.316;2023-03-21T14:38:53;12.80;;;5.43;;
6089;SDS011;3073;42.660;23.316;2023-03-21T14:41:23;16.50;;;6.70;;
6089;SDS011;3073;42.660;23.316;2023-03-21T14:44:02;13.00;;;6.07;;
6089;SDS011;3073;42.660;23.316;2023-03-21T14:46:36;8.40;;;5.00;;
6089;SDS011;3073;42.660;23.316;2023-03-21T14:49:16;12.77;;;6.63;;
6089;SDS011;3073;42.660;23.316;2023-03-21T14:51:45;12.43;;;5.50;;
6089;SDS011;3073;42.660;23.316;2023-03-21T14:54:13;10.40;;;6.20;;
6089;SDS011;3073;42.660;23.316;2023-03-21T14:56:42;14.13;;;6.70;;
6089;SDS011;3073;42.660;23.316;2023-03-21T14:59:13;13.40;;;6.77;;
6089;SDS011;3073;42.660;23.316;2023-03-21T15:01:42;12.13;;;6.70;;
6089;SDS011;3073;42.660;23.316;2023-03-21T15:04:17;15.33;;;9.90;;
6089;SDS011;3073;42.660;23.316;2023-03-21T15:06:48;16.03;;;8.93;;